Time;durP1;ratioP1;P1;durP2;ratioP2;P2;SDS_P1;SDS_P2;PMS_P1;PMS_P2;Temp;Humidity;BMP_temperature;BMP_pressure;BME280_temperature;BME280_humidity;BME280_pressure;Samples;Min_cycle;Max_cycle;Signal;HPM_P1;HPM_P2
2023/04/06 00:03:15;;;;;;;8.82;3.40;;;2.70;99.90;;;;;;12480154;28;20049;-79
2023/04/06 00:09:17;;;;;;;8.40;3.25;;;2.90;99.90;;;;;;12482416;28;20061;-79
2023/04/06 00:15:20;;;;;;;5.63;3.00;;;3.00;99.90;;;;;;12476117;28;20046;-80
2023/04/06 00:21:22;;;;;;;9.35;4.50;;;3.20;99.90;;;;;;12488649;28;20081;-79
2023/04/06 00:27:24;;;;;;;5.97;2.95;;;3.30;99.90;;;;;;12480620;28;20049;-79
2023/04/06 00:33:26;;;;;;;6.40;2.88;;;3.40;99.90;;;;;;12487447;28;20107;-79
2023/04/06 00:39:28;;;;;;;4.63;2.85;;;3.40;99.90;;;;;;12488083;28;20048;-79
2023/04/06 00:45:29;;;;;;;4.80;2.75;;;3.40;99.90;;;;;;12476645;28;20040;-79
2023/04/06 00:51:31;;;;;;;5.68;3.08;;;3.40;99.90;;;;;;12486416;28;20061;-78
2023/04/06 00:57:33;;;;;;;6.15;3.30;;;3.30;99.90;;;;;;12489334;28;20053;-79
2023/04/06 01:03:35;;;;;;;4.75;2.88;;;3.30;99.90;;;;;;12496820;28;20279;-79
2023/04/06 01:09:37;;;;;;;6.72;3.03;;;3.20;99.90;;;;;;12470847;28;20374;-78
2023/04/06 01:15:41;;;;;;;7.05;3.65;;;3.10;99.90;;;;;;12466134;28;20061;-78
2023/04/06 01:21:43;;;;;;;5.25;2.83;;;3.10;99.90;;;;;;12482338;28;20181;-78
2023/04/06 01:27:45;;;;;;;7.97;3.60;;;3.10;99.90;;;;;;12488270;28;20053;-78
2023/04/06 01:33:47;;;;;;;6.88;3.58;;;3.20;99.90;;;;;;12478723;28;20057;-78
2023/04/06 01:39:49;;;;;;;6.22;4.25;;;3.10;99.90;;;;;;12483568;28;20452;-79
2023/04/06 01:45:51;;;;;;;7.38;4.38;;;2.80;99.90;;;;;;12480999;28;20502;-78
2023/04/06 01:51:54;;;;;;;7.57;5.03;;;2.60;99.90;;;;;;12482017;28;20045;-78
2023/04/06 01:57:56;;;;;;;8.82;5.10;;;2.50;99.90;;;;;;12480160;28;20054;-79
2023/04/06 02:03:57;;;;;;;9.18;5.50;;;2.20;99.90;;;;;;12481322;28;20083;-79
2023/04/06 02:09:59;;;;;;;14.32;5.50;;;1.80;99.90;;;;;;12490167;28;20046;-78
2023/04/06 02:16:02;;;;;;;6.70;5.15;;;1.40;99.90;;;;;;12496297;28;20075;-78
2023/04/06 02:22:06;;;;;;;9.27;5.78;;;1.40;99.90;;;;;;12497377;28;20609;-78
2023/04/06 02:28:09;;;;;;;17.27;6.95;;;1.30;99.90;;;;;;12478963;28;20049;-79
2023/04/06 02:34:17;;;;;;;9.77;5.53;;;1.20;99.90;;;;;;12476042;28;20490;-79
2023/04/06 02:40:19;;;;;;;8.02;5.60;;;0.90;99.90;;;;;;12496579;28;20052;-79
2023/04/06 02:46:21;;;;;;;10.43;5.43;;;1.00;99.90;;;;;;12466631;28;20045;-79
2023/04/06 02:52:23;;;;;;;10.00;5.40;;;1.00;99.90;;;;;;12466472;28;20116;-79
2023/04/06 02:58:25;;;;;;;8.93;4.70;;;1.00;99.90;;;;;;12474534;28;20038;-79
2023/04/06 03:04:26;;;;;;;7.90;4.65;;;1.00;99.90;;;;;;12478929;28;20057;-78
2023/04/06 03:10:28;;;;;;;6.80;4.72;;;1.10;99.90;;;;;;12474536;28;20049;-78
2023/04/06 03:16:30;;;;;;;7.22;4.60;;;1.20;99.90;;;;;;12508287;28;20052;-79
2023/04/06 03:22:32;;;;;;;8.95;5.53;;;1.20;99.90;;;;;;12484236;28;20127;-78
2023/04/06 03:28:34;;;;;;;9.35;5.50;;;1.00;99.90;;;;;;12477743;28;20084;-80
2023/04/06 03:34:36;;;;;;;10.20;5.50;;;0.90;99.90;;;;;;12490267;28;20139;-78
2023/04/06 03:40:38;;;;;;;11.63;5.60;;;0.80;99.90;;;;;;12474026;28;20061;-78
2023/04/06 03:46:40;;;;;;;9.93;5.38;;;0.70;99.90;;;;;;12489791;28;20144;-79
2023/04/06 03:52:42;;;;;;;11.10;5.75;;;0.80;99.90;;;;;;12469549;28;20056;-79
2023/04/06 03:58:50;;;;;;;11.70;5.63;;;0.80;99.90;;;;;;12479349;28;20091;-79
2023/04/06 04:04:52;;;;;;;8.32;5.25;;;0.70;99.90;;;;;;12471307;28;20046;-80
2023/04/06 04:10:54;;;;;;;8.00;4.55;;;0.80;99.90;;;;;;12486687;28;20052;-79
2023/04/06 04:16:56;;;;;;;9.30;5.43;;;1.10;99.90;;;;;;12460835;28;20525;-79
2023/04/06 04:22:58;;;;;;;8.65;5.50;;;1.10;99.90;;;;;;12478291;28;20490;-79
2023/04/06 04:29:00;;;;;;;9.40;5.97;;;1.00;99.90;;;;;;12505059;28;20037;-79
2023/04/06 04:35:02;;;;;;;8.85;5.53;;;0.70;99.90;;;;;;12494417;28;20036;-79
2023/04/06 04:41:04;;;;;;;8.95;6.03;;;0.60;99.90;;;;;;12484679;28;20164;-80
2023/04/06 04:47:06;;;;;;;9.80;5.90;;;0.80;99.90;;;;;;12505341;28;20107;-80
2023/04/06 04:53:09;;;;;;;9.48;5.22;;;0.80;99.90;;;;;;12547099;28;20060;-80
2023/04/06 04:59:11;;;;;;;10.13;5.82;;;0.60;99.90;;;;;;12535780;28;20029;-80
2023/04/06 05:05:13;;;;;;;11.68;6.05;;;0.60;99.90;;;;;;12495550;28;20057;-79
2023/04/06 05:11:15;;;;;;;11.55;6.35;;;0.90;99.90;;;;;;12483276;28;20061;-79
2023/04/06 05:17:17;;;;;;;10.57;5.40;;;1.00;99.90;;;;;;12483847;28;20498;-80
2023/04/06 05:23:19;;;;;;;9.95;5.45;;;1.80;99.90;;;;;;12478218;28;20046;-79
2023/04/06 05:29:21;;;;;;;9.98;5.60;;;3.60;99.90;;;;;;12467037;28;20054;-80
2023/04/06 05:35:23;;;;;;;10.73;5.55;;;3.60;99.90;;;;;;12459252;28;20045;-78
2023/04/06 05:41:26;;;;;;;15.43;5.25;;;3.70;99.90;;;;;;12486660;28;20100;-79
2023/04/06 05:47:27;;;;;;;10.45;6.63;;;3.10;99.90;;;;;;12480697;28;20042;-80
2023/04/06 05:53:30;;;;;;;12.85;5.97;;;3.00;99.90;;;;;;12475011;28;20084;-79
2023/04/06 05:59:32;;;;;;;9.52;5.97;;;2.80;99.90;;;;;;12467673;28;20088;-80
2023/04/06 06:05:34;;;;;;;9.82;6.07;;;4.10;99.90;;;;;;12471375;28;20084;-79
2023/04/06 06:11:37;;;;;;;11.57;7.10;;;4.10;99.90;;;;;;12479571;28;20055;-80
2023/04/06 06:17:38;;;;;;;10.05;5.78;;;4.00;99.90;;;;;;12459395;28;20053;-80
2023/04/06 06:23:42;;;;;;;12.15;6.65;;;3.80;99.90;;;;;;12469109;28;20056;-81
2023/04/06 06:29:44;;;;;;;9.20;6.17;;;3.80;99.90;;;;;;12474581;28;20065;-80
2023/04/06 06:35:46;;;;;;;12.23;7.38;;;3.90;99.90;;;;;;12469690;28;20038;-80
2023/04/06 06:41:48;;;;;;;12.60;6.40;;;4.00;99.90;;;;;;12457664;28;20068;-81
2023/04/06 06:47:50;;;;;;;10.75;6.63;;;4.20;99.90;;;;;;12470333;28;20146;-80
2023/04/06 06:53:56;;;;;;;10.40;6.47;;;4.50;99.90;;;;;;12476460;28;21264;-80
2023/04/06 06:59:59;;;;;;;10.80;6.20;;;4.70;99.90;;;;;;12488906;28;20045;-80
2023/04/06 07:06:01;;;;;;;9.70;5.88;;;4.90;99.90;;;;;;12498558;28;20536;-82
2023/04/06 07:12:03;;;;;;;9.55;4.18;;;4.90;99.90;;;;;;12488731;28;20042;-81
2023/04/06 07:18:05;;;;;;;7.22;4.45;;;5.20;99.90;;;;;;12525724;28;20041;-81
2023/04/06 07:24:08;;;;;;;7.20;4.28;;;5.70;99.90;;;;;;12531636;28;20034;-81
2023/04/06 07:30:10;;;;;;;6.35;4.15;;;6.00;99.90;;;;;;12526843;28;20072;-81
2023/04/06 07:36:12;;;;;;;7.07;4.50;;;6.30;99.90;;;;;;12488311;28;20537;-79
2023/04/06 07:42:14;;;;;;;8.00;4.50;;;6.60;99.90;;;;;;12465466;28;20184;-79
2023/04/06 07:48:16;;;;;;;6.80;4.53;;;6.80;99.90;;;;;;12490265;28;20131;-80
2023/04/06 07:54:18;;;;;;;7.25;4.35;;;6.90;99.90;;;;;;12483274;28;20068;-80
2023/04/06 08:00:21;;;;;;;6.50;4.13;;;7.30;99.90;;;;;;12493059;28;20125;-80
2023/04/06 08:06:23;;;;;;;8.88;4.88;;;7.50;99.90;;;;;;12482292;28;20058;-80
2023/04/06 08:12:25;;;;;;;6.85;4.35;;;7.80;99.90;;;;;;12470102;28;20087;-80
2023/04/06 08:18:27;;;;;;;7.18;4.50;;;7.90;99.90;;;;;;12481255;28;20045;-80
2023/04/06 08:24:29;;;;;;;8.77;4.28;;;8.30;99.90;;;;;;12478558;28;20045;-80
2023/04/06 08:30:31;;;;;;;7.80;4.55;;;8.40;99.90;;;;;;12485321;28;20075;-80
2023/04/06 08:36:33;;;;;;;9.85;4.38;;;8.60;99.90;;;;;;12469555;28;20081;-80
2023/04/06 08:42:41;;;;;;;7.30;4.45;;;8.70;99.90;;;;;;12483551;28;20052;-80
2023/04/06 08:48:43;;;;;;;7.68;4.43;;;9.00;99.90;;;;;;12491462;28;20444;-80
2023/04/06 08:54:47;;;;;;;6.57;4.13;;;9.40;99.90;;;;;;12462765;28;20042;-80
2023/04/06 09:00:51;;;;;;;6.88;4.25;;;9.60;99.90;;;;;;12472400;28;20128;-80
2023/04/06 09:06:53;;;;;;;6.40;4.40;;;9.70;99.90;;;;;;12482649;28;20053;-80
2023/04/06 09:13:04;;;;;;;7.68;4.43;;;9.90;99.90;;;;;;12500828;28;20313;-80
2023/04/06 09:19:06;;;;;;;8.32;4.82;;;9.90;99.90;;;;;;12467861;28;20044;-80
2023/04/06 09:25:10;;;;;;;9.27;4.68;;;10.20;99.90;;;;;;12469114;28;20138;-80
2023/04/06 09:31:14;;;;;;;9.75;5.18;;;10.20;99.90;;;;;;12468863;28;20053;-79
2023/04/06 09:37:18;;;;;;;9.18;5.25;;;10.40;99.90;;;;;;12447972;28;20053;-80
2023/04/06 09:43:27;;;;;;;7.93;5.32;;;10.50;99.90;;;;;;12479191;28;20105;-79
2023/04/06 09:49:33;;;;;;;7.53;5.32;;;10.70;99.90;;;;;;12461460;28;20079;-80
2023/04/06 09:55:43;;;;;;;10.50;5.30;;;10.80;99.90;;;;;;12472464;28;20179;-80
2023/04/06 10:01:48;;;;;;;8.27;5.20;;;11.30;99.90;;;;;;12485030;28;20037;-80
2023/04/06 10:07:53;;;;;;;9.57;6.22;;;11.40;99.90;;;;;;12470312;28;20061;-81
2023/04/06 10:14:02;;;;;;;10.27;6.35;;;11.60;99.90;;;;;;12451607;28;20038;-80
2023/04/06 10:20:17;;;;;;;10.20;6.80;;;11.60;99.90;;;;;;12461642;28;20041;-80
2023/04/06 10:26:21;;;;;;;12.90;6.50;;;11.50;99.90;;;;;;12433987;28;20086;-80
2023/04/06 10:32:32;;;;;;;9.47;6.43;;;11.80;99.90;;;;;;12489833;28;20615;-80
2023/04/06 10:38:36;;;;;;;9.50;6.03;;;11.70;99.90;;;;;;12468811;28;20121;-80
2023/04/06 10:44:44;;;;;;;9.70;6.40;;;12.10;99.90;;;;;;12469816;28;20101;-80
2023/04/06 10:50:51;;;;;;;10.70;6.15;;;12.00;99.90;;;;;;12446955;28;20050;-80
2023/04/06 10:56:53;;;;;;;11.52;6.85;;;12.10;99.90;;;;;;12469989;28;20204;-80
2023/04/06 11:03:02;;;;;;;12.10;6.68;;;12.20;99.90;;;;;;12470522;28;20046;-80
2023/04/06 11:09:04;;;;;;;11.43;6.75;;;12.40;99.90;;;;;;12476158;28;20065;-80
2023/04/06 11:15:06;;;;;;;11.93;7.32;;;12.60;99.90;;;;;;12460462;28;20121;-81
2023/04/06 11:21:08;;;;;;;13.65;7.85;;;12.50;99.90;;;;;;12460972;28;20053;-80
2023/04/06 11:27:11;;;;;;;10.50;7.13;;;12.40;99.90;;;;;;12466170;28;20053;-80
2023/04/06 11:33:22;;;;;;;12.60;7.72;;;12.30;99.90;;;;;;12474612;28;20663;-80
2023/04/06 11:39:26;;;;;;;13.18;7.57;;;13.00;99.90;;;;;;12480057;28;20058;-80
2023/04/06 11:45:38;;;;;;;10.77;7.45;;;13.50;99.90;;;;;;12479298;28;20055;-81
2023/04/06 11:51:40;;;;;;;18.38;7.90;;;13.70;99.90;;;;;;12466962;28;20053;-81
2023/04/06 11:57:42;;;;;;;11.25;7.55;;;13.60;99.90;;;;;;12463955;28;20042;-80
2023/04/06 12:03:45;;;;;;;12.52;8.18;;;13.60;99.90;;;;;;12473953;28;20087;-80
2023/04/06 12:09:48;;;;;;;11.43;7.82;;;13.40;99.90;;;;;;12460576;28;20064;-80
2023/04/06 12:15:49;;;;;;;12.30;7.57;;;13.90;99.90;;;;;;12482854;28;20490;-80
2023/04/06 12:21:54;;;;;;;15.00;8.38;;;13.60;99.90;;;;;;12451982;28;20054;-80
2023/04/06 12:27:56;;;;;;;14.15;7.20;;;13.90;99.90;;;;;;12471265;28;20064;-80
2023/04/06 12:33:58;;;;;;;10.77;7.30;;;13.80;99.90;;;;;;12448674;28;20041;-80
2023/04/06 12:40:00;;;;;;;12.93;8.10;;;13.80;99.90;;;;;;12445166;28;20042;-82
2023/04/06 12:46:02;;;;;;;10.50;7.43;;;13.60;99.90;;;;;;12471798;28;20180;-80
2023/04/06 12:52:05;;;;;;;12.07;7.60;;;13.90;99.90;;;;;;12462910;28;20053;-80
2023/04/06 12:58:06;;;;;;;13.68;7.90;;;14.60;99.90;;;;;;12453468;28;20114;-81
2023/04/06 13:04:10;;;;;;;12.82;7.47;;;14.20;99.90;;;;;;12480941;28;20560;-81
2023/04/06 13:10:12;;;;;;;10.63;7.50;;;14.20;99.90;;;;;;12467190;28;20433;-80
2023/04/06 13:16:18;;;;;;;11.30;7.57;;;14.50;99.90;;;;;;12463206;28;20050;-92
2023/04/06 13:22:20;;;;;;;13.68;8.35;;;14.60;99.90;;;;;;12447690;28;20498;-82
2023/04/06 13:28:22;;;;;;;14.50;8.68;;;14.50;99.90;;;;;;12462310;28;20087;-81
2023/04/06 13:34:25;;;;;;;12.80;8.55;;;14.50;99.90;;;;;;12458996;28;20180;-82
2023/04/06 13:40:27;;;;;;;12.23;7.75;;;14.40;99.90;;;;;;12456499;28;20049;-81
2023/04/06 13:46:29;;;;;;;12.85;7.20;;;14.60;99.90;;;;;;12450040;28;20049;-83
2023/04/06 13:52:31;;;;;;;22.60;7.82;;;14.40;99.90;;;;;;12443284;28;20447;-83
2023/04/06 13:58:33;;;;;;;13.60;7.28;;;14.60;99.90;;;;;;12470197;28;20045;-83
2023/04/06 14:04:35;;;;;;;11.55;6.35;;;14.20;99.90;;;;;;12441738;28;20107;-83
2023/04/06 14:10:40;;;;;;;11.52;5.85;;;14.20;99.30;;;;;;12458956;28;20097;-83
2023/04/06 14:16:45;;;;;;;8.38;5.30;;;14.00;93.70;;;;;;12479343;28;20049;-83
2023/04/06 14:22:49;;;;;;;9.40;5.43;;;13.80;94.10;;;;;;12474509;28;20069;-84
2023/04/06 14:28:51;;;;;;;8.90;5.93;;;14.00;92.70;;;;;;12448505;28;20104;-83
2023/04/06 14:34:53;;;;;;;11.40;5.70;;;14.20;94.90;;;;;;12463675;28;20349;-83
2023/04/06 14:40:55;;;;;;;10.70;6.35;;;14.40;94.50;;;;;;12436505;28;20279;-84
2023/04/06 14:46:57;;;;;;;12.60;6.65;;;14.60;96.80;;;;;;12469187;28;20108;-84
2023/04/06 14:53:00;;;;;;;10.48;6.82;;;14.20;91.60;;;;;;12447735;28;20120;-83
2023/04/06 14:59:02;;;;;;;13.82;6.60;;;14.50;94.20;;;;;;12473013;28;20041;-82
2023/04/06 15:05:05;;;;;;;10.35;6.57;;;14.40;95.40;;;;;;12495700;28;20127;-82
2023/04/06 15:11:07;;;;;;;13.30;8.27;;;14.20;99.40;;;;;;12484366;28;20065;-83
2023/04/06 15:17:09;;;;;;;17.05;8.57;;;13.80;94.40;;;;;;12502710;28;20187;-82
2023/04/06 15:23:11;;;;;;;14.70;8.20;;;13.70;97.40;;;;;;12489186;28;20057;-82
2023/04/06 15:29:13;;;;;;;12.15;7.95;;;13.60;95.70;;;;;;12476823;28;20045;-83
2023/04/06 15:35:15;;;;;;;13.10;8.30;;;13.60;95.60;;;;;;12481207;28;20037;-82
2023/04/06 15:41:17;;;;;;;14.95;8.73;;;13.40;99.50;;;;;;12474398;28;20048;-81
2023/04/06 15:47:19;;;;;;;16.50;8.77;;;13.30;98.70;;;;;;12487495;28;20053;-82
2023/04/06 15:53:21;;;;;;;12.05;7.72;;;13.40;99.90;;;;;;12495925;28;20200;-82
2023/04/06 15:59:23;;;;;;;16.80;8.80;;;13.20;99.90;;;;;;12501380;28;20410;-82
2023/04/06 16:05:24;;;;;;;12.27;8.05;;;13.20;99.90;;;;;;12488081;28;20053;-82
2023/04/06 16:11:31;;;;;;;16.65;9.75;;;13.10;99.90;;;;;;12469266;28;20136;-82
2023/04/06 16:17:33;;;;;;;13.57;8.77;;;12.90;99.90;;;;;;12471093;28;20053;-82
2023/04/06 16:23:35;;;;;;;16.92;9.30;;;12.80;99.90;;;;;;12491323;28;20041;-82
2023/04/06 16:29:37;;;;;;;15.90;9.55;;;12.70;99.90;;;;;;12478430;28;20103;-82
2023/04/06 16:35:46;;;;;;;17.70;9.60;;;12.50;99.90;;;;;;12479842;28;20060;-82
2023/04/06 16:41:48;;;;;;;15.60;9.20;;;12.30;99.90;;;;;;12470712;28;20057;-81
2023/04/06 16:47:50;;;;;;;19.17;9.90;;;12.10;99.90;;;;;;12485065;28;20383;-81
2023/04/06 16:53:53;;;;;;;16.55;9.65;;;12.00;99.90;;;;;;12470915;28;20034;-81
2023/04/06 16:59:55;;;;;;;14.60;9.23;;;12.00;99.90;;;;;;12488020;28;20105;-81
2023/04/06 17:05:57;;;;;;;15.25;9.93;;;11.80;99.90;;;;;;12490329;28;20494;-80
2023/04/06 17:11:59;;;;;;;19.42;10.20;;;11.70;99.90;;;;;;12475587;28;20497;-81
2023/04/06 17:18:01;;;;;;;19.45;9.95;;;11.60;99.90;;;;;;12478156;28;20042;-80
2023/04/06 17:24:03;;;;;;;17.80;9.98;;;11.50;99.90;;;;;;12490613;28;20044;-80
2023/04/06 17:30:09;;;;;;;31.50;17.25;;;11.30;99.90;;;;;;12452611;28;20046;-81
2023/04/06 17:36:11;;;;;;;17.33;10.90;;;11.20;99.90;;;;;;12422654;28;20049;-80
2023/04/06 17:42:15;;;;;;;18.75;10.38;;;11.10;99.90;;;;;;12454208;28;20137;-80
2023/04/06 17:48:17;;;;;;;18.87;10.57;;;10.90;99.90;;;;;;12465475;28;20105;-80
2023/04/06 17:54:19;;;;;;;26.55;10.88;;;10.60;99.90;;;;;;12487524;28;20052;-80
2023/04/06 18:00:23;;;;;;;17.63;9.48;;;10.30;99.90;;;;;;12474852;28;20072;-80
2023/04/06 18:06:25;;;;;;;21.37;10.13;;;10.10;99.90;;;;;;12483122;28;20061;-79
2023/04/06 18:12:27;;;;;;;15.95;10.00;;;9.80;99.90;;;;;;12496704;28;20049;-80
2023/04/06 18:18:29;;;;;;;17.77;10.57;;;9.60;99.90;;;;;;12480131;28;20588;-80
2023/04/06 18:24:31;;;;;;;19.40;9.70;;;9.50;99.90;;;;;;12472858;28;20865;-81
2023/04/06 18:30:43;;;;;;;17.50;10.45;;;9.40;99.90;;;;;;12478459;28;20052;-80
2023/04/06 18:36:45;;;;;;;22.27;11.65;;;9.30;99.90;;;;;;12473056;28;20061;-79
2023/04/06 18:42:47;;;;;;;15.95;9.52;;;9.40;99.90;;;;;;12482716;28;20053;-80
2023/04/06 18:48:49;;;;;;;16.13;9.57;;;9.40;99.90;;;;;;12462960;28;20551;-81
2023/04/06 18:54:51;;;;;;;14.23;8.88;;;9.40;99.90;;;;;;12476488;28;20041;-80
2023/04/06 19:00:54;;;;;;;14.82;8.60;;;9.30;99.90;;;;;;12489103;28;20077;-80
2023/04/06 19:06:56;;;;;;;15.93;9.38;;;9.20;99.90;;;;;;12469173;28;20057;-80
2023/04/06 19:12:58;;;;;;;19.42;9.00;;;9.10;99.90;;;;;;12486402;28;20409;-80
2023/04/06 19:18:59;;;;;;;17.27;8.63;;;9.10;99.90;;;;;;12480232;28;20084;-80
2023/04/06 19:25:02;;;;;;;15.18;9.82;;;9.10;99.90;;;;;;12475344;28;20049;-80
2023/04/06 19:31:09;;;;;;;14.48;9.40;;;9.20;99.90;;;;;;12465707;28;20053;-80
2023/04/06 19:37:11;;;;;;;11.75;7.53;;;9.40;99.90;;;;;;12489608;28;20100;-81
2023/04/06 19:43:13;;;;;;;15.07;8.25;;;9.50;99.90;;;;;;12485051;28;20183;-79
2023/04/06 19:49:15;;;;;;;13.70;8.43;;;9.60;99.90;;;;;;12476100;28;20049;-80
2023/04/06 19:55:17;;;;;;;14.00;8.30;;;9.50;99.90;;;;;;12489550;28;20041;-80
2023/04/06 20:01:19;;;;;;;13.43;7.40;;;9.60;99.90;;;;;;12469953;28;20069;-80
2023/04/06 20:07:21;;;;;;;14.82;8.55;;;9.70;99.90;;;;;;12481692;28;20050;-80
2023/04/06 20:13:23;;;;;;;13.38;7.78;;;9.70;99.90;;;;;;12468427;28;20053;-80
2023/04/06 20:19:24;;;;;;;11.63;8.05;;;9.70;99.90;;;;;;12495960;28;20073;-80
2023/04/06 20:25:26;;;;;;;11.13;7.55;;;9.60;99.90;;;;;;12483820;28;20543;-81
2023/04/06 20:31:29;;;;;;;13.05;8.27;;;9.40;99.90;;;;;;12461339;28;20084;-80
2023/04/06 20:37:34;;;;;;;11.33;7.80;;;9.30;99.90;;;;;;12488098;28;20046;-80
2023/04/06 20:43:36;;;;;;;15.43;8.43;;;9.20;99.90;;;;;;12505898;28;20077;-80
2023/04/06 20:49:38;;;;;;;12.88;8.25;;;9.20;99.90;;;;;;12465696;28;20049;-81
2023/04/06 20:55:40;;;;;;;14.25;9.02;;;9.00;99.90;;;;;;12469213;28;20110;-81
2023/04/06 21:01:43;;;;;;;13.52;8.75;;;9.00;99.90;;;;;;12506688;28;20049;-80
2023/04/06 21:07:45;;;;;;;12.52;7.90;;;8.90;99.90;;;;;;12457504;28;20053;-82
2023/04/06 21:13:46;;;;;;;13.57;8.65;;;8.90;99.90;;;;;;12475755;28;20125;-81
2023/04/06 21:19:48;;;;;;;16.10;8.18;;;8.80;99.90;;;;;;12474487;28;20073;-80
2023/04/06 21:25:55;;;;;;;12.55;8.57;;;8.70;99.90;;;;;;12487333;28;20068;-80
2023/04/06 21:31:58;;;;;;;15.93;8.35;;;8.70;99.90;;;;;;12461139;28;20275;-80
2023/04/06 21:37:59;;;;;;;16.88;9.40;;;8.60;99.90;;;;;;12478452;28;20069;-79
2023/04/06 21:44:02;;;;;;;17.00;8.65;;;8.50;99.90;;;;;;12503314;28;20119;-80
2023/04/06 21:50:04;;;;;;;16.80;8.65;;;8.50;99.90;;;;;;12482862;28;20500;-81
2023/04/06 21:56:07;;;;;;;14.20;8.23;;;8.50;99.90;;;;;;12449148;28;20053;-79
2023/04/06 22:02:09;;;;;;;13.63;8.48;;;8.40;99.90;;;;;;12484949;28;20045;-79
2023/04/06 22:08:11;;;;;;;12.45;8.60;;;8.30;99.90;;;;;;12489025;28;20504;-80
2023/04/06 22:14:26;;;;;;;13.68;7.95;;;8.30;99.90;;;;;;12467160;28;20042;-80
2023/04/06 22:20:28;;;;;;;13.52;7.32;;;8.30;99.90;;;;;;12465275;28;20045;-81
2023/04/06 22:26:30;;;;;;;13.60;8.43;;;8.30;99.90;;;;;;12464701;28;20083;-80
2023/04/06 22:32:31;;;;;;;12.20;7.22;;;8.20;99.90;;;;;;12483005;28;20095;-80
2023/04/06 22:38:33;;;;;;;11.82;7.40;;;8.20;99.90;;;;;;12475329;28;20132;-80
2023/04/06 22:44:35;;;;;;;14.63;8.27;;;8.30;99.90;;;;;;12501093;28;20053;-80
2023/04/06 22:50:37;;;;;;;15.05;8.35;;;8.20;99.90;;;;;;12486006;28;20141;-80
2023/04/06 22:56:40;;;;;;;11.63;7.97;;;8.20;99.90;;;;;;12475481;28;20052;-80
2023/04/06 23:02:41;;;;;;;12.93;7.78;;;8.20;99.90;;;;;;12496390;28;20166;-81
2023/04/06 23:08:45;;;;;;;12.13;7.85;;;8.20;99.90;;;;;;12469703;28;20494;-80
2023/04/06 23:14:47;;;;;;;13.23;7.90;;;8.30;99.90;;;;;;12488594;28;20045;-80
2023/04/06 23:20:51;;;;;;;12.35;7.78;;;8.20;99.90;;;;;;12459541;28;20639;-80
2023/04/06 23:26:53;;;;;;;11.57;7.70;;;8.20;99.90;;;;;;12487637;28;20045;-80
2023/04/06 23:32:55;;;;;;;11.55;7.45;;;8.20;99.90;;;;;;12467561;28;20140;-80
2023/04/06 23:38:57;;;;;;;12.60;7.53;;;8.10;99.90;;;;;;12473986;28;20094;-80
2023/04/06 23:44:59;;;;;;;12.38;7.50;;;8.10;99.90;;;;;;12492419;28;20160;-80
2023/04/06 23:51:02;;;;;;;11.82;7.63;;;8.00;99.90;;;;;;12479545;28;20103;-80
2023/04/06 23:57:04;;;;;;;12.60;8.63;;;8.00;99.90;;;;;;12479480;28;20098;-80
